createdAt,value
2018-10-02T00:00:02.652Z,2
2018-10-02T00:05:03.438Z,2
2018-10-02T00:10:03.089Z,3
2018-10-02T00:15:02.675Z,2
2018-10-02T00:20:03.377Z,2
2018-10-02T00:25:02.989Z,2
2018-10-02T00:30:02.540Z,4
2018-10-02T00:35:03.110Z,2
2018-10-02T00:40:02.694Z,3
2018-10-02T00:45:03.274Z,3
2018-10-02T00:50:02.859Z,3
2018-10-02T00:55:03.447Z,3
2018-10-02T01:00:03.091Z,3
2018-10-02T01:05:02.608Z,3
2018-10-02T01:10:03.273Z,3
2018-10-02T01:15:02.883Z,2
2018-10-02T01:20:03.516Z,3
2018-10-02T01:25:03.099Z,3
2018-10-02T01:30:02.723Z,8
2018-10-02T01:35:03.568Z,7
2018-10-02T01:40:03.194Z,6
2018-10-02T01:45:02.782Z,5
2018-10-02T01:50:03.350Z,4
2018-10-02T01:55:02.865Z,4
2018-10-02T02:00:03.458Z,4
2018-10-02T02:05:02.905Z,3
2018-10-02T02:10:03.525Z,2
2018-10-02T02:15:03.170Z,1
2018-10-02T02:20:02.715Z,3
2018-10-02T02:25:03.352Z,3
2018-10-02T02:30:02.886Z,2
2018-10-02T02:35:03.603Z,3
2018-10-02T02:40:03.298Z,4
2018-10-02T02:45:02.925Z,4
2018-10-02T02:50:02.586Z,3
2018-10-02T02:55:03.391Z,4
2018-10-02T03:00:03.462Z,4
2018-10-02T03:05:02.926Z,4
2018-10-02T03:10:02.569Z,5
2018-10-02T03:15:03.175Z,4
2018-10-02T03:20:02.710Z,6
2018-10-02T03:25:03.277Z,3
2018-10-02T03:30:02.871Z,5
2018-10-02T03:35:03.411Z,7
2018-10-02T03:40:03.165Z,5
2018-10-02T03:45:02.681Z,6
2018-10-02T03:50:03.185Z,5
2018-10-02T03:55:02.745Z,4
2018-10-02T04:00:03.586Z,6
2018-10-02T04:05:03.201Z,6
2018-10-02T04:10:02.936Z,5
2018-10-02T04:15:03.381Z,7
2018-10-02T04:20:02.844Z,6
2018-10-02T04:25:03.390Z,9
2018-10-02T04:30:02.900Z,4
2018-10-02T04:35:02.544Z,6
2018-10-02T04:40:03.166Z,6
2018-10-02T04:45:02.775Z,6
2018-10-02T04:50:03.293Z,6
2018-10-02T04:55:03.124Z,7
2018-10-02T05:00:02.892Z,5
2018-10-02T05:05:03.516Z,7
2018-10-02T05:10:03.194Z,5
2018-10-02T05:15:02.842Z,8
2018-10-02T05:25:02.992Z,6
2018-10-02T05:30:02.559Z,5
2018-10-02T05:35:03.746Z,5
2018-10-02T05:40:02.768Z,6
2018-10-02T05:45:03.422Z,5
2018-10-02T05:50:02.837Z,4
2018-10-02T05:55:03.449Z,7
2018-10-02T06:00:03.008Z,7
2018-10-02T06:05:02.582Z,5
2018-10-02T06:10:04.074Z,8
2018-10-02T06:15:02.945Z,9
2018-10-02T06:20:02.546Z,6
2018-10-02T06:25:03.128Z,8
2018-10-02T06:30:02.716Z,10
2018-10-02T06:35:03.283Z,11
2018-10-02T06:40:02.929Z,8
2018-10-02T06:45:03.031Z,7
2018-10-02T06:50:02.898Z,9
2018-10-02T06:55:03.466Z,8
2018-10-02T07:00:03.144Z,7
2018-10-02T07:05:02.739Z,9
2018-10-02T07:10:03.371Z,5
2018-10-02T07:15:03.452Z,7
2018-10-02T07:20:03.226Z,6
2018-10-02T07:25:02.888Z,4
2018-10-02T07:30:02.929Z,5
2018-10-02T07:35:03.503Z,6
2018-10-02T07:40:03.274Z,9
2018-10-02T07:45:03.446Z,4
2018-10-02T07:50:03.327Z,7
2018-10-02T07:55:02.908Z,9
2018-10-02T08:00:03.940Z,7
2018-10-02T08:05:03.471Z,6
2018-10-02T08:10:02.692Z,8
2018-10-02T08:15:03.812Z,5
2018-10-02T08:20:03.302Z,10
2018-10-02T08:25:03.218Z,6
2018-10-02T08:30:03.503Z,6
2018-10-02T08:35:03.508Z,9
2018-10-02T08:40:03.246Z,10
2018-10-02T08:45:03.234Z,7
2018-10-02T08:50:02.979Z,7
2018-10-02T08:55:02.621Z,9
2018-10-02T09:00:03.234Z,11
2018-10-02T09:05:02.752Z,6
2018-10-02T09:10:03.421Z,9
2018-10-02T09:15:03.069Z,10
2018-10-02T09:20:02.611Z,9
2018-10-02T09:25:03.741Z,11
2018-10-02T09:30:02.631Z,11
2018-10-02T09:35:03.189Z,6
2018-10-02T09:40:03.293Z,8
2018-10-02T09:45:03.184Z,7
2018-10-02T09:50:02.727Z,7
2018-10-02T09:55:03.839Z,8
2018-10-02T10:00:02.609Z,4
2018-10-02T10:05:03.261Z,8
2018-10-02T10:10:02.893Z,9
2018-10-02T10:15:03.431Z,10
2018-10-02T10:20:03.031Z,5
2018-10-02T10:25:03.600Z,9
2018-10-02T10:30:03.192Z,4
2018-10-02T10:35:03.233Z,6
2018-10-02T10:40:03.090Z,12
2018-10-02T10:45:02.620Z,8
2018-10-02T10:50:03.092Z,7
2018-10-02T10:55:02.630Z,8
2018-10-02T11:00:03.182Z,8
2018-10-02T11:05:03.302Z,6
2018-10-02T11:10:03.251Z,11
2018-10-02T11:15:02.946Z,7
2018-10-02T11:20:02.719Z,7
2018-10-02T11:25:03.354Z,9
2018-10-02T11:30:03.096Z,7
2018-10-02T11:35:02.822Z,11
2018-10-02T11:40:03.432Z,10
2018-10-02T11:45:03.680Z,8
2018-10-02T11:50:04.095Z,5
2018-10-02T11:55:02.718Z,4
2018-10-02T12:00:03.289Z,7
2018-10-02T12:05:02.867Z,4
2018-10-02T12:10:03.499Z,5
2018-10-02T12:15:03.202Z,6
2018-10-02T12:20:04.237Z,7
2018-10-02T12:25:02.984Z,6
2018-10-02T12:30:03.519Z,6
2018-10-02T12:35:03.075Z,7
2018-10-02T12:40:02.740Z,11
2018-10-02T12:45:03.496Z,8
2018-10-02T12:50:03.228Z,9
2018-10-02T12:55:02.764Z,3
2018-10-02T13:00:03.343Z,6
2018-10-02T13:05:02.931Z,7
2018-10-02T13:10:02.911Z,7
2018-10-02T13:15:02.686Z,5
2018-10-02T13:20:03.698Z,6
2018-10-02T13:25:02.642Z,7
2018-10-02T13:30:03.181Z,5
2018-10-02T13:35:02.765Z,10
2018-10-02T13:40:03.366Z,5
2018-10-02T13:45:02.911Z,5
2018-10-02T13:50:03.510Z,9
2018-10-02T13:55:03.037Z,7
2018-10-02T14:00:02.635Z,12
2018-10-02T14:05:03.213Z,5
2018-10-02T14:10:02.897Z,7
2018-10-02T14:15:03.111Z,7
2018-10-02T14:20:03.150Z,8
2018-10-02T14:25:02.802Z,7
2018-10-02T14:30:03.420Z,8
2018-10-02T14:35:03.009Z,4
2018-10-02T14:40:02.660Z,7
2018-10-02T14:45:03.328Z,6
2018-10-02T14:50:02.956Z,9
2018-10-02T14:55:03.521Z,6
2018-10-02T15:00:03.135Z,9
2018-10-02T15:05:02.788Z,7
2018-10-02T15:10:03.449Z,9
2018-10-02T15:15:03.048Z,9
2018-10-02T15:20:02.726Z,9
2018-10-02T15:25:03.374Z,7
2018-10-02T15:30:03.013Z,5
2018-10-02T15:35:02.670Z,7
2018-10-02T15:40:03.392Z,10
2018-10-02T15:45:03.102Z,11
2018-10-02T15:50:02.735Z,7
2018-10-02T15:55:03.298Z,8
2018-10-02T16:00:02.895Z,7
2018-10-02T16:05:03.574Z,12
2018-10-02T16:10:03.254Z,7
2018-10-02T16:15:02.935Z,11
2018-10-02T16:20:02.632Z,7
2018-10-02T16:25:03.306Z,10
2018-10-02T16:30:02.903Z,6
2018-10-02T16:35:02.574Z,5
2018-10-02T16:40:03.226Z,8
2018-10-02T16:45:02.807Z,10
2018-10-02T16:50:03.508Z,7
2018-10-02T16:55:03.115Z,7
2018-10-02T17:00:02.717Z,9
2018-10-02T17:05:03.327Z,9
2018-10-02T17:10:02.974Z,7
2018-10-02T17:15:02.589Z,4
2018-10-02T17:20:03.166Z,4
2018-10-02T17:25:02.870Z,3
2018-10-02T17:30:03.429Z,7
2018-10-02T17:35:02.982Z,3
2018-10-02T17:40:02.810Z,2
2018-10-02T17:45:03.430Z,1
2018-10-02T17:50:03.030Z,3
2018-10-02T17:55:03.188Z,3
2018-10-02T18:00:03.113Z,3
2018-10-02T18:05:02.701Z,3
2018-10-02T18:10:03.352Z,5
2018-10-02T18:15:02.928Z,6
2018-10-02T18:20:02.703Z,2
2018-10-02T18:25:03.384Z,3
2018-10-02T18:30:02.987Z,1
2018-10-02T18:35:02.582Z,3
2018-10-02T18:40:03.274Z,3
2018-10-02T18:45:02.891Z,4
2018-10-02T18:50:02.753Z,3
2018-10-02T18:55:03.601Z,5
2018-10-02T19:00:03.191Z,3
2018-10-02T19:05:02.861Z,3
2018-10-02T19:10:04.016Z,3
2018-10-02T19:15:02.882Z,2
2018-10-02T19:20:03.541Z,3
2018-10-02T19:25:03.523Z,3
2018-10-02T19:30:03.386Z,4
2018-10-02T19:35:02.967Z,4
2018-10-02T19:40:02.763Z,3
2018-10-02T19:45:03.459Z,2
2018-10-02T19:50:03.312Z,4
2018-10-02T19:55:02.888Z,3
2018-10-02T20:00:03.645Z,2
2018-10-02T20:05:03.301Z,3
2018-10-02T20:10:02.972Z,2
2018-10-02T20:15:03.800Z,2
2018-10-02T20:20:03.475Z,2
2018-10-02T20:25:03.067Z,2
2018-10-02T20:30:02.614Z,2
2018-10-02T20:35:03.296Z,2
2018-10-02T20:40:03.065Z,2
2018-10-02T20:45:02.674Z,1
2018-10-02T20:50:03.375Z,3
2018-10-02T20:55:03.010Z,3
2018-10-02T21:00:02.633Z,3
2018-10-02T21:05:03.489Z,2
2018-10-02T21:10:03.214Z,3
2018-10-02T21:15:03.015Z,4
2018-10-02T21:20:03.217Z,2
2018-10-02T21:25:03.135Z,2
2018-10-02T21:30:02.698Z,2
2018-10-02T21:35:03.269Z,3
2018-10-02T21:40:03.399Z,2
2018-10-02T21:45:03.365Z,3
2018-10-02T21:50:02.902Z,1
2018-10-02T21:55:03.507Z,0
2018-10-02T22:00:03.103Z,0
2018-10-02T22:05:03.387Z,2
2018-10-02T22:10:03.097Z,1
2018-10-02T22:15:02.674Z,1
2018-10-02T22:20:03.319Z,0
2018-10-02T22:25:02.967Z,2
2018-10-02T22:30:02.579Z,0
2018-10-02T22:35:03.341Z,0
2018-10-02T22:40:03.365Z,0
2018-10-02T22:45:03.208Z,0
2018-10-02T22:50:02.736Z,0
2018-10-02T22:55:03.583Z,0
2018-10-02T23:00:03.250Z,0
2018-10-02T23:05:02.880Z,0
2018-10-02T23:10:02.612Z,0
2018-10-02T23:15:03.691Z,0
2018-10-02T23:20:03.251Z,0
2018-10-02T23:25:02.843Z,0
2018-10-02T23:30:03.510Z,0
2018-10-02T23:35:03.106Z,0
2018-10-02T23:40:02.804Z,0
2018-10-02T23:45:03.378Z,0
2018-10-02T23:50:02.956Z,0
2018-10-02T23:55:02.536Z,1
